Memphis, Tennessee
Current Conditions -  °F | °C
As of 3:54 PM on Saturday 25 Oct 2014 (Local Time) from KMEM Reporting Station
Few Clouds Few Clouds  
Wind Chill: 82°   Ceiling: Unl
Heat Index: 83°   Visibility: 10mi
Dew Point: 62°   Wind: 6mph
Humidity: 51%   Direction: 240°WSW
Pressure: 30.03"   Gusts: NA
Location:  35.15°N, 90.05°W
Report Text: KMEM 252054Z 24005KT 10SM FEW050 28/17 A3003 RMK AO2 SLP165 T02780167 56014 $
Loading
Personal Weather Stations






























Interactive Weather Map New forecast layout! Learn more

10-Day Weather Forecast

Advertisements
Track Severe Weather on mobile